sensor_id;sensor_type;location;lat;lon;timestamp;P1;durP1;ratioP1;P2;durP2;ratioP2
24685;SDS011;12804;51.176;4.452;2022-09-09T00:00:23;16.40;;;5.35;;
24685;SDS011;12804;51.176;4.452;2022-09-09T00:02:54;11.93;;;4.68;;
24685;SDS011;12804;51.176;4.452;2022-09-09T00:05:39;7.80;;;4.90;;
24685;SDS011;12804;51.176;4.452;2022-09-09T00:08:41;9.52;;;4.03;;
24685;SDS011;12804;51.176;4.452;2022-09-09T00:11:39;10.75;;;4.30;;
24685;SDS011;12804;51.176;4.452;2022-09-09T00:14:17;6.38;;;4.18;;
24685;SDS011;12804;51.176;4.452;2022-09-09T00:17:08;6.30;;;3.70;;
24685;SDS011;12804;51.176;4.452;2022-09-09T00:19:46;9.82;;;4.05;;
24685;SDS011;12804;51.176;4.452;2022-09-09T00:22:27;8.63;;;3.90;;
24685;SDS011;12804;51.176;4.452;2022-09-09T00:25:11;6.20;;;3.95;;
24685;SDS011;12804;51.176;4.452;2022-09-09T00:28:02;7.20;;;3.67;;
24685;SDS011;12804;51.176;4.452;2022-09-09T00:30:36;10.20;;;4.25;;
24685;SDS011;12804;51.176;4.452;2022-09-09T00:33:10;7.68;;;3.63;;
24685;SDS011;12804;51.176;4.452;2022-09-09T00:35:42;6.43;;;3.60;;
24685;SDS011;12804;51.176;4.452;2022-09-09T00:38:19;7.57;;;3.65;;
24685;SDS011;12804;51.176;4.452;2022-09-09T00:57:45;6.70;;;3.55;;
24685;SDS011;12804;51.176;4.452;2022-09-09T01:00:23;7.43;;;3.33;;
24685;SDS011;12804;51.176;4.452;2022-09-09T01:03:17;5.75;;;3.20;;
24685;SDS011;12804;51.176;4.452;2022-09-09T01:08:27;7.30;;;3.65;;
24685;SDS011;12804;51.176;4.452;2022-09-09T01:11:17;6.63;;;3.40;;
24685;SDS011;12804;51.176;4.452;2022-09-09T01:14:13;7.35;;;4.15;;
24685;SDS011;12804;51.176;4.452;2022-09-09T01:17:17;8.18;;;3.50;;
24685;SDS011;12804;51.176;4.452;2022-09-09T01:20:23;11.90;;;3.70;;
24685;SDS011;12804;51.176;4.452;2022-09-09T01:28:40;6.97;;;3.72;;
24685;SDS011;12804;51.176;4.452;2022-09-09T01:31:12;6.33;;;3.40;;
24685;SDS011;12804;51.176;4.452;2022-09-09T01:33:45;5.72;;;3.50;;
24685;SDS011;12804;51.176;4.452;2022-09-09T01:36:13;5.85;;;3.42;;
24685;SDS011;12804;51.176;4.452;2022-09-09T01:39:04;7.10;;;3.42;;
24685;SDS011;12804;51.176;4.452;2022-09-09T01:41:31;7.38;;;3.35;;
24685;SDS011;12804;51.176;4.452;2022-09-09T01:44:07;6.30;;;3.13;;
24685;SDS011;12804;51.176;4.452;2022-09-09T01:46:36;8.85;;;3.00;;
24685;SDS011;12804;51.176;4.452;2022-09-09T01:49:04;7.00;;;3.13;;
24685;SDS011;12804;51.176;4.452;2022-09-09T01:51:31;8.40;;;3.30;;
24685;SDS011;12804;51.176;4.452;2022-09-09T01:54:01;4.88;;;2.80;;
24685;SDS011;12804;51.176;4.452;2022-09-09T02:02:17;6.88;;;3.00;;
24685;SDS011;12804;51.176;4.452;2022-09-09T02:08:09;4.65;;;2.90;;
24685;SDS011;12804;51.176;4.452;2022-09-09T02:13:46;6.05;;;2.88;;
24685;SDS011;12804;51.176;4.452;2022-09-09T02:21:31;10.88;;;3.47;;
24685;SDS011;12804;51.176;4.452;2022-09-09T02:24:01;6.38;;;2.70;;
24685;SDS011;12804;51.176;4.452;2022-09-09T02:26:31;7.38;;;3.20;;
24685;SDS011;12804;51.176;4.452;2022-09-09T02:31:33;8.48;;;3.28;;
24685;SDS011;12804;51.176;4.452;2022-09-09T02:34:04;7.32;;;2.95;;
24685;SDS011;12804;51.176;4.452;2022-09-09T02:36:33;8.68;;;3.17;;
24685;SDS011;12804;51.176;4.452;2022-09-09T02:39:00;6.55;;;3.17;;
24685;SDS011;12804;51.176;4.452;2022-09-09T02:41:33;5.60;;;2.63;;
24685;SDS011;12804;51.176;4.452;2022-09-09T02:44:00;6.88;;;3.15;;
24685;SDS011;12804;51.176;4.452;2022-09-09T02:49:21;6.45;;;3.47;;
24685;SDS011;12804;51.176;4.452;2022-09-09T02:52:00;8.02;;;3.08;;
24685;SDS011;12804;51.176;4.452;2022-09-09T02:54:33;6.18;;;3.10;;
24685;SDS011;12804;51.176;4.452;2022-09-09T02:59:38;7.72;;;3.15;;
24685;SDS011;12804;51.176;4.452;2022-09-09T03:02:05;7.78;;;3.20;;
24685;SDS011;12804;51.176;4.452;2022-09-09T03:04:32;8.38;;;2.78;;
24685;SDS011;12804;51.176;4.452;2022-09-09T03:06:58;6.50;;;2.75;;
24685;SDS011;12804;51.176;4.452;2022-09-09T03:09:24;5.32;;;2.85;;
24685;SDS011;12804;51.176;4.452;2022-09-09T03:11:52;8.35;;;2.80;;
24685;SDS011;12804;51.176;4.452;2022-09-09T03:14:18;8.02;;;2.80;;
24685;SDS011;12804;51.176;4.452;2022-09-09T03:16:47;8.02;;;2.65;;
24685;SDS011;12804;51.176;4.452;2022-09-09T03:19:13;6.40;;;2.80;;
24685;SDS011;12804;51.176;4.452;2022-09-09T03:21:40;9.88;;;3.38;;
24685;SDS011;12804;51.176;4.452;2022-09-09T03:24:06;8.38;;;3.40;;
24685;SDS011;12804;51.176;4.452;2022-09-09T03:26:32;9.23;;;3.22;;
24685;SDS011;12804;51.176;4.452;2022-09-09T03:28:59;8.65;;;2.78;;
24685;SDS011;12804;51.176;4.452;2022-09-09T03:31:26;7.75;;;3.58;;
24685;SDS011;12804;51.176;4.452;2022-09-09T03:33:56;15.27;;;3.63;;
24685;SDS011;12804;51.176;4.452;2022-09-09T03:36:25;10.93;;;3.30;;
24685;SDS011;12804;51.176;4.452;2022-09-09T03:38:52;9.85;;;2.90;;
24685;SDS011;12804;51.176;4.452;2022-09-09T03:41:20;11.07;;;2.95;;
24685;SDS011;12804;51.176;4.452;2022-09-09T03:43:52;12.50;;;3.47;;
24685;SDS011;12804;51.176;4.452;2022-09-09T03:46:23;12.85;;;3.10;;
24685;SDS011;12804;51.176;4.452;2022-09-09T03:48:50;11.80;;;3.10;;
24685;SDS011;12804;51.176;4.452;2022-09-09T03:51:17;11.43;;;3.08;;
24685;SDS011;12804;51.176;4.452;2022-09-09T03:53:44;8.32;;;2.83;;
24685;SDS011;12804;51.176;4.452;2022-09-09T03:56:11;10.77;;;3.20;;
24685;SDS011;12804;51.176;4.452;2022-09-09T03:58:37;10.93;;;2.63;;
24685;SDS011;12804;51.176;4.452;2022-09-09T04:01:07;12.50;;;3.35;;
24685;SDS011;12804;51.176;4.452;2022-09-09T04:03:36;12.43;;;3.17;;
24685;SDS011;12804;51.176;4.452;2022-09-09T04:06:02;12.60;;;3.35;;
24685;SDS011;12804;51.176;4.452;2022-09-09T04:08:30;10.65;;;3.25;;
24685;SDS011;12804;51.176;4.452;2022-09-09T04:10:57;12.25;;;2.90;;
24685;SDS011;12804;51.176;4.452;2022-09-09T04:13:25;8.68;;;3.10;;
24685;SDS011;12804;51.176;4.452;2022-09-09T04:15:55;12.20;;;2.88;;
24685;SDS011;12804;51.176;4.452;2022-09-09T04:18:22;9.30;;;2.80;;
24685;SDS011;12804;51.176;4.452;2022-09-09T04:20:49;10.45;;;3.00;;
24685;SDS011;12804;51.176;4.452;2022-09-09T04:23:18;7.93;;;2.65;;
24685;SDS011;12804;51.176;4.452;2022-09-09T04:25:46;8.43;;;2.72;;
24685;SDS011;12804;51.176;4.452;2022-09-09T04:28:13;11.05;;;2.55;;
24685;SDS011;12804;51.176;4.452;2022-09-09T04:30:40;10.05;;;3.03;;
24685;SDS011;12804;51.176;4.452;2022-09-09T04:33:08;11.50;;;2.45;;
24685;SDS011;12804;51.176;4.452;2022-09-09T04:35:35;10.55;;;2.60;;
24685;SDS011;12804;51.176;4.452;2022-09-09T04:38:02;11.50;;;2.28;;
24685;SDS011;12804;51.176;4.452;2022-09-09T04:40:30;9.32;;;2.97;;
24685;SDS011;12804;51.176;4.452;2022-09-09T04:42:59;14.77;;;2.97;;
24685;SDS011;12804;51.176;4.452;2022-09-09T04:45:26;8.60;;;2.53;;
24685;SDS011;12804;51.176;4.452;2022-09-09T04:47:53;12.55;;;2.58;;
24685;SDS011;12804;51.176;4.452;2022-09-09T04:50:19;11.32;;;2.55;;
24685;SDS011;12804;51.176;4.452;2022-09-09T04:52:46;12.40;;;2.40;;
24685;SDS011;12804;51.176;4.452;2022-09-09T04:55:13;9.45;;;2.40;;
24685;SDS011;12804;51.176;4.452;2022-09-09T04:57:42;12.77;;;3.10;;
24685;SDS011;12804;51.176;4.452;2022-09-09T05:00:10;9.38;;;2.53;;
24685;SDS011;12804;51.176;4.452;2022-09-09T05:02:40;14.48;;;2.80;;
24685;SDS011;12804;51.176;4.452;2022-09-09T05:05:07;8.00;;;2.30;;
24685;SDS011;12804;51.176;4.452;2022-09-09T05:07:34;7.70;;;2.20;;
24685;SDS011;12804;51.176;4.452;2022-09-09T05:09:59;8.95;;;2.40;;
24685;SDS011;12804;51.176;4.452;2022-09-09T05:12:25;9.52;;;2.72;;
24685;SDS011;12804;51.176;4.452;2022-09-09T05:14:52;12.95;;;2.85;;
24685;SDS011;12804;51.176;4.452;2022-09-09T05:17:17;12.85;;;3.03;;
24685;SDS011;12804;51.176;4.452;2022-09-09T05:19:44;9.15;;;2.50;;
24685;SDS011;12804;51.176;4.452;2022-09-09T05:22:10;13.52;;;2.92;;
24685;SDS011;12804;51.176;4.452;2022-09-09T05:24:42;10.48;;;3.13;;
24685;SDS011;12804;51.176;4.452;2022-09-09T05:27:09;5.97;;;2.15;;
24685;SDS011;12804;51.176;4.452;2022-09-09T05:29:38;9.48;;;2.88;;
24685;SDS011;12804;51.176;4.452;2022-09-09T05:32:07;13.95;;;2.75;;
24685;SDS011;12804;51.176;4.452;2022-09-09T05:34:35;15.45;;;2.90;;
24685;SDS011;12804;51.176;4.452;2022-09-09T05:37:03;16.85;;;2.67;;
24685;SDS011;12804;51.176;4.452;2022-09-09T05:39:30;13.90;;;2.70;;
24685;SDS011;12804;51.176;4.452;2022-09-09T05:41:58;10.77;;;2.67;;
24685;SDS011;12804;51.176;4.452;2022-09-09T05:44:24;12.43;;;2.80;;
24685;SDS011;12804;51.176;4.452;2022-09-09T05:46:53;8.25;;;2.38;;
24685;SDS011;12804;51.176;4.452;2022-09-09T05:49:20;11.15;;;2.65;;
24685;SDS011;12804;51.176;4.452;2022-09-09T05:51:47;13.82;;;3.33;;
24685;SDS011;12804;51.176;4.452;2022-09-09T05:54:16;11.77;;;2.47;;
24685;SDS011;12804;51.176;4.452;2022-09-09T05:56:46;11.15;;;2.35;;
24685;SDS011;12804;51.176;4.452;2022-09-09T05:59:14;10.15;;;2.63;;
24685;SDS011;12804;51.176;4.452;2022-09-09T06:01:41;9.60;;;2.45;;
24685;SDS011;12804;51.176;4.452;2022-09-09T06:04:13;13.27;;;2.42;;
24685;SDS011;12804;51.176;4.452;2022-09-09T06:06:40;9.18;;;2.50;;
24685;SDS011;12804;51.176;4.452;2022-09-09T06:09:16;11.27;;;2.58;;
24685;SDS011;12804;51.176;4.452;2022-09-09T06:11:42;9.85;;;2.50;;
24685;SDS011;12804;51.176;4.452;2022-09-09T06:14:10;11.13;;;2.40;;
24685;SDS011;12804;51.176;4.452;2022-09-09T06:16:37;13.80;;;2.65;;
24685;SDS011;12804;51.176;4.452;2022-09-09T06:19:05;10.27;;;2.17;;
24685;SDS011;12804;51.176;4.452;2022-09-09T06:21:36;8.65;;;2.30;;
24685;SDS011;12804;51.176;4.452;2022-09-09T06:24:05;6.93;;;2.17;;
24685;SDS011;12804;51.176;4.452;2022-09-09T06:26:33;10.30;;;2.28;;
24685;SDS011;12804;51.176;4.452;2022-09-09T06:29:01;7.22;;;2.13;;
24685;SDS011;12804;51.176;4.452;2022-09-09T06:31:29;9.13;;;2.08;;
24685;SDS011;12804;51.176;4.452;2022-09-09T06:34:07;10.25;;;2.33;;
24685;SDS011;12804;51.176;4.452;2022-09-09T06:36:35;8.80;;;2.15;;
24685;SDS011;12804;51.176;4.452;2022-09-09T06:39:03;7.03;;;1.90;;
24685;SDS011;12804;51.176;4.452;2022-09-09T06:41:32;9.73;;;2.15;;
24685;SDS011;12804;51.176;4.452;2022-09-09T06:43:59;9.10;;;1.92;;
24685;SDS011;12804;51.176;4.452;2022-09-09T06:46:38;8.50;;;1.58;;
24685;SDS011;12804;51.176;4.452;2022-09-09T06:49:05;8.80;;;2.00;;
24685;SDS011;12804;51.176;4.452;2022-09-09T06:51:36;12.55;;;2.50;;
24685;SDS011;12804;51.176;4.452;2022-09-09T06:54:09;5.75;;;2.13;;
24685;SDS011;12804;51.176;4.452;2022-09-09T06:56:40;10.35;;;2.30;;
24685;SDS011;12804;51.176;4.452;2022-09-09T06:59:12;7.13;;;1.88;;
24685;SDS011;12804;51.176;4.452;2022-09-09T07:01:40;10.27;;;1.90;;
24685;SDS011;12804;51.176;4.452;2022-09-09T07:04:10;9.60;;;2.10;;
24685;SDS011;12804;51.176;4.452;2022-09-09T07:06:39;10.10;;;2.33;;
24685;SDS011;12804;51.176;4.452;2022-09-09T07:09:10;8.43;;;2.08;;
24685;SDS011;12804;51.176;4.452;2022-09-09T07:11:41;9.05;;;2.45;;
24685;SDS011;12804;51.176;4.452;2022-09-09T07:14:09;9.77;;;2.28;;
24685;SDS011;12804;51.176;4.452;2022-09-09T07:16:38;8.32;;;2.10;;
24685;SDS011;12804;51.176;4.452;2022-09-09T07:19:05;6.85;;;2.15;;
24685;SDS011;12804;51.176;4.452;2022-09-09T07:21:31;7.78;;;1.63;;
24685;SDS011;12804;51.176;4.452;2022-09-09T07:23:58;7.88;;;1.90;;
24685;SDS011;12804;51.176;4.452;2022-09-09T07:26:26;9.82;;;1.63;;
24685;SDS011;12804;51.176;4.452;2022-09-09T07:28:54;12.65;;;1.88;;
24685;SDS011;12804;51.176;4.452;2022-09-09T07:31:25;7.70;;;2.00;;
24685;SDS011;12804;51.176;4.452;2022-09-09T07:33:55;7.43;;;2.03;;
24685;SDS011;12804;51.176;4.452;2022-09-09T07:36:24;6.57;;;2.05;;
24685;SDS011;12804;51.176;4.452;2022-09-09T07:38:54;11.43;;;2.10;;
24685;SDS011;12804;51.176;4.452;2022-09-09T07:41:26;8.55;;;1.55;;
24685;SDS011;12804;51.176;4.452;2022-09-09T07:43:59;7.25;;;1.75;;
24685;SDS011;12804;51.176;4.452;2022-09-09T07:46:30;11.85;;;1.80;;
24685;SDS011;12804;51.176;4.452;2022-09-09T07:48:56;25.42;;;3.25;;
24685;SDS011;12804;51.176;4.452;2022-09-09T07:51:28;7.10;;;1.67;;
24685;SDS011;12804;51.176;4.452;2022-09-09T07:53:56;10.32;;;1.88;;
24685;SDS011;12804;51.176;4.452;2022-09-09T07:56:25;9.50;;;1.95;;
24685;SDS011;12804;51.176;4.452;2022-09-09T07:58:53;9.07;;;1.95;;
24685;SDS011;12804;51.176;4.452;2022-09-09T08:01:39;11.20;;;2.25;;
24685;SDS011;12804;51.176;4.452;2022-09-09T08:04:09;10.98;;;1.80;;
24685;SDS011;12804;51.176;4.452;2022-09-09T08:06:42;7.65;;;1.52;;
24685;SDS011;12804;51.176;4.452;2022-09-09T08:09:20;4.90;;;1.65;;
24685;SDS011;12804;51.176;4.452;2022-09-09T08:11:47;8.45;;;1.73;;
24685;SDS011;12804;51.176;4.452;2022-09-09T08:14:15;9.75;;;1.70;;
24685;SDS011;12804;51.176;4.452;2022-09-09T08:16:43;5.88;;;1.30;;
24685;SDS011;12804;51.176;4.452;2022-09-09T08:19:13;8.57;;;1.70;;
24685;SDS011;12804;51.176;4.452;2022-09-09T08:21:44;7.10;;;1.80;;
24685;SDS011;12804;51.176;4.452;2022-09-09T08:24:11;7.88;;;1.77;;
24685;SDS011;12804;51.176;4.452;2022-09-09T08:26:40;9.48;;;1.77;;
24685;SDS011;12804;51.176;4.452;2022-09-09T08:29:10;7.85;;;1.65;;
24685;SDS011;12804;51.176;4.452;2022-09-09T08:31:40;5.38;;;1.40;;
24685;SDS011;12804;51.176;4.452;2022-09-09T08:34:07;7.88;;;1.60;;
24685;SDS011;12804;51.176;4.452;2022-09-09T08:36:37;4.10;;;1.52;;
24685;SDS011;12804;51.176;4.452;2022-09-09T08:39:06;8.27;;;1.70;;
24685;SDS011;12804;51.176;4.452;2022-09-09T08:41:56;8.48;;;1.67;;
24685;SDS011;12804;51.176;4.452;2022-09-09T08:53:20;5.07;;;1.55;;
24685;SDS011;12804;51.176;4.452;2022-09-09T08:56:15;5.47;;;1.35;;
24685;SDS011;12804;51.176;4.452;2022-09-09T08:58:54;8.70;;;1.80;;
24685;SDS011;12804;51.176;4.452;2022-09-09T09:01:39;8.80;;;1.60;;
24685;SDS011;12804;51.176;4.452;2022-09-09T09:12:10;9.68;;;1.90;;
24685;SDS011;12804;51.176;4.452;2022-09-09T09:14:48;7.17;;;2.17;;
24685;SDS011;12804;51.176;4.452;2022-09-09T09:17:17;8.15;;;1.92;;
24685;SDS011;12804;51.176;4.452;2022-09-09T09:19:44;5.28;;;1.90;;
24685;SDS011;12804;51.176;4.452;2022-09-09T09:24:56;7.78;;;1.90;;
24685;SDS011;12804;51.176;4.452;2022-09-09T09:27:44;6.30;;;1.58;;
24685;SDS011;12804;51.176;4.452;2022-09-09T09:30:24;7.85;;;1.80;;
24685;SDS011;12804;51.176;4.452;2022-09-09T09:32:55;9.98;;;2.03;;
24685;SDS011;12804;51.176;4.452;2022-09-09T09:35:27;7.35;;;2.30;;
24685;SDS011;12804;51.176;4.452;2022-09-09T09:37:53;6.53;;;2.08;;
24685;SDS011;12804;51.176;4.452;2022-09-09T09:40:20;8.98;;;2.00;;
24685;SDS011;12804;51.176;4.452;2022-09-09T09:42:52;7.25;;;2.33;;
24685;SDS011;12804;51.176;4.452;2022-09-09T09:45:25;4.60;;;1.73;;
24685;SDS011;12804;51.176;4.452;2022-09-09T09:48:00;10.07;;;2.25;;
24685;SDS011;12804;51.176;4.452;2022-09-09T09:50:30;6.32;;;1.80;;
24685;SDS011;12804;51.176;4.452;2022-09-09T09:52:58;9.18;;;1.77;;
24685;SDS011;12804;51.176;4.452;2022-09-09T09:55:28;6.85;;;2.10;;
24685;SDS011;12804;51.176;4.452;2022-09-09T09:58:00;9.40;;;2.00;;
24685;SDS011;12804;51.176;4.452;2022-09-09T10:00:30;7.00;;;1.90;;
24685;SDS011;12804;51.176;4.452;2022-09-09T10:05:47;7.78;;;2.05;;
24685;SDS011;12804;51.176;4.452;2022-09-09T10:08:15;11.73;;;2.42;;
24685;SDS011;12804;51.176;4.452;2022-09-09T10:10:48;10.43;;;2.30;;
24685;SDS011;12804;51.176;4.452;2022-09-09T10:13:26;6.20;;;1.73;;
24685;SDS011;12804;51.176;4.452;2022-09-09T10:15:57;7.93;;;1.90;;
24685;SDS011;12804;51.176;4.452;2022-09-09T10:21:39;8.48;;;2.17;;
24685;SDS011;12804;51.176;4.452;2022-09-09T10:32:38;4.80;;;1.13;;
24685;SDS011;12804;51.176;4.452;2022-09-09T10:55:10;4.03;;;1.50;;
24685;SDS011;12804;51.176;4.452;2022-09-09T10:57:47;5.22;;;1.70;;
24685;SDS011;12804;51.176;4.452;2022-09-09T11:00:16;5.53;;;1.38;;
24685;SDS011;12804;51.176;4.452;2022-09-09T11:02:58;7.22;;;1.75;;
24685;SDS011;12804;51.176;4.452;2022-09-09T11:05:31;5.13;;;1.20;;
24685;SDS011;12804;51.176;4.452;2022-09-09T11:08:02;5.85;;;1.33;;
24685;SDS011;12804;51.176;4.452;2022-09-09T11:15:58;4.57;;;1.00;;
24685;SDS011;12804;51.176;4.452;2022-09-09T11:18:37;6.22;;;0.95;;
24685;SDS011;12804;51.176;4.452;2022-09-09T11:21:07;3.70;;;1.20;;
24685;SDS011;12804;51.176;4.452;2022-09-09T11:23:44;5.95;;;1.45;;
24685;SDS011;12804;51.176;4.452;2022-09-09T11:26:17;5.18;;;1.20;;
24685;SDS011;12804;51.176;4.452;2022-09-09T11:28:59;3.55;;;1.00;;
24685;SDS011;12804;51.176;4.452;2022-09-09T11:34:57;4.18;;;0.98;;
24685;SDS011;12804;51.176;4.452;2022-09-09T11:40:33;4.50;;;1.00;;
24685;SDS011;12804;51.176;4.452;2022-09-09T11:43:07;3.08;;;1.08;;
24685;SDS011;12804;51.176;4.452;2022-09-09T11:45:40;2.78;;;0.88;;
24685;SDS011;12804;51.176;4.452;2022-09-09T11:48:21;2.88;;;0.90;;
24685;SDS011;12804;51.176;4.452;2022-09-09T11:53:58;2.58;;;0.82;;
24685;SDS011;12804;51.176;4.452;2022-09-09T11:56:43;2.38;;;0.70;;
24685;SDS011;12804;51.176;4.452;2022-09-09T11:59:29;5.20;;;1.00;;
24685;SDS011;12804;51.176;4.452;2022-09-09T12:10:04;4.72;;;1.00;;
24685;SDS011;12804;51.176;4.452;2022-09-09T12:12:31;4.03;;;1.00;;
24685;SDS011;12804;51.176;4.452;2022-09-09T12:17:28;3.92;;;1.10;;
24685;SDS011;12804;51.176;4.452;2022-09-09T12:25:39;3.95;;;1.23;;
24685;SDS011;12804;51.176;4.452;2022-09-09T12:34:11;3.80;;;0.93;;
24685;SDS011;12804;51.176;4.452;2022-09-09T12:36:44;3.10;;;0.80;;
24685;SDS011;12804;51.176;4.452;2022-09-09T12:39:16;4.15;;;0.80;;
24685;SDS011;12804;51.176;4.452;2022-09-09T12:41:55;1.90;;;0.70;;
24685;SDS011;12804;51.176;4.452;2022-09-09T12:44:22;2.53;;;0.90;;
24685;SDS011;12804;51.176;4.452;2022-09-09T12:46:50;3.88;;;1.00;;
24685;SDS011;12804;51.176;4.452;2022-09-09T12:49:27;2.65;;;0.88;;
24685;SDS011;12804;51.176;4.452;2022-09-09T12:52:01;1.80;;;0.95;;
24685;SDS011;12804;51.176;4.452;2022-09-09T12:54:30;3.60;;;1.00;;
24685;SDS011;12804;51.176;4.452;2022-09-09T12:56:59;3.08;;;1.00;;
24685;SDS011;12804;51.176;4.452;2022-09-09T12:59:27;3.42;;;0.82;;
24685;SDS011;12804;51.176;4.452;2022-09-09T13:04:53;2.38;;;0.75;;
24685;SDS011;12804;51.176;4.452;2022-09-09T13:07:19;3.00;;;0.80;;
24685;SDS011;12804;51.176;4.452;2022-09-09T13:09:47;2.72;;;0.70;;
24685;SDS011;12804;51.176;4.452;2022-09-09T13:12:23;3.15;;;0.80;;
24685;SDS011;12804;51.176;4.452;2022-09-09T13:14:53;3.15;;;1.02;;
24685;SDS011;12804;51.176;4.452;2022-09-09T13:17:24;3.85;;;0.75;;
